Country
Station

 

Weather  for  Lufkin, Angelina County Airport  -  United States    United States

  
33 °C (91 °F)
    
 
 

Current METAR for Lufkin, Angelina County Airport is :

KLFK 201953Z AUTO 22007G15KT 10SM FEW036 33/24 A2983 RMK AO2 SLP097 T03280244

 

This is a report for Lufkin, Angelina County Airport - United States.
 
The report was made 32 minutes ago, at 19:53 UTC .
The wind was blowing at a speed of 3.6 meters per second (8.1 miles per hour) with gusts up to 7.7 meters per second (17.3 miles per hour) from southwest (220°).
 
The temperature was 33 °C (91 °F), with a dew-point at 24 °C (75 °F).
The temperature felt like 39 °C (102 °F).
 
The atmospheric pressure was 1010 hPa (29.83 inHg).
The relative humidity was 59.3%.
 
There were a few clouds at a height of 1097 meters (3600 feet).
 
The overall visibility was 16.1 kilometers (10.0 miles).
 

 
 
 
 

Country :   A   B   C   D   E   F   G   H   I   J   K   L   M   N   O   P   Q   R   S   T   U   V   W   Y   Z

 

Site Info  |  Disclaimer  |  Credits  |  Privacy
Contact us  |  Add to favorites
© 2013-2019 METARs - All rights reserved